sensor_id;sensor_type;location;lat;lon;timestamp;pressure;altitude;pressure_sealevel;temperature;humidity
66703;BME280;60933;46.398;-63.798;2023-02-17T00:01:12;101012.84;;;2.10;71.50
66703;BME280;60933;46.398;-63.798;2023-02-17T00:03:38;101017.91;;;2.07;71.86
66703;BME280;60933;46.398;-63.798;2023-02-17T00:06:06;101033.13;;;2.03;71.45
66703;BME280;60933;46.398;-63.798;2023-02-17T00:08:32;101051.78;;;2.02;71.76
66703;BME280;60933;46.398;-63.798;2023-02-17T00:10:58;101039.06;;;2.01;71.65
66703;BME280;60933;46.398;-63.798;2023-02-17T00:13:25;101037.31;;;1.98;71.75
66703;BME280;60933;46.398;-63.798;2023-02-17T00:15:51;101050.00;;;1.95;71.39
66703;BME280;60933;46.398;-63.798;2023-02-17T00:18:17;101060.16;;;1.95;71.21
66703;BME280;60933;46.398;-63.798;2023-02-17T00:20:44;101061.00;;;1.93;71.55
66703;BME280;60933;46.398;-63.798;2023-02-17T00:23:11;101070.34;;;1.95;71.50
66703;BME280;60933;46.398;-63.798;2023-02-17T00:25:37;101081.38;;;1.96;70.13
66703;BME280;60933;46.398;-63.798;2023-02-17T00:28:04;101078.72;;;1.88;70.17
66703;BME280;60933;46.398;-63.798;2023-02-17T00:30:30;101098.19;;;1.84;70.33
66703;BME280;60933;46.398;-63.798;2023-02-17T00:32:56;101095.50;;;1.77;71.13
66703;BME280;60933;46.398;-63.798;2023-02-17T00:35:22;101095.44;;;1.72;71.22
66703;BME280;60933;46.398;-63.798;2023-02-17T00:37:48;101103.00;;;1.67;71.36
66703;BME280;60933;46.398;-63.798;2023-02-17T00:40:14;101101.25;;;1.65;71.53
66703;BME280;60933;46.398;-63.798;2023-02-17T00:42:40;101092.72;;;1.63;72.38
66703;BME280;60933;46.398;-63.798;2023-02-17T00:45:07;101085.91;;;1.60;72.83
66703;BME280;60933;46.398;-63.798;2023-02-17T00:47:34;101097.75;;;1.58;73.33
66703;BME280;60933;46.398;-63.798;2023-02-17T00:50:00;101101.00;;;1.51;73.68
66703;BME280;60933;46.398;-63.798;2023-02-17T00:52:26;101117.94;;;1.50;73.54
66703;BME280;60933;46.398;-63.798;2023-02-17T00:54:52;101126.34;;;1.46;73.54
66703;BME280;60933;46.398;-63.798;2023-02-17T00:57:18;101128.00;;;1.42;73.60
66703;BME280;60933;46.398;-63.798;2023-02-17T00:59:44;101131.34;;;1.40;73.73
66703;BME280;60933;46.398;-63.798;2023-02-17T01:02:09;101144.84;;;1.37;73.65
66703;BME280;60933;46.398;-63.798;2023-02-17T01:04:35;101142.22;;;1.33;73.88
66703;BME280;60933;46.398;-63.798;2023-02-17T01:07:01;101143.84;;;1.29;74.00
66703;BME280;60933;46.398;-63.798;2023-02-17T01:09:27;101153.13;;;1.27;74.17
66703;BME280;60933;46.398;-63.798;2023-02-17T01:11:54;101170.06;;;1.26;73.75
66703;BME280;60933;46.398;-63.798;2023-02-17T01:14:20;101177.72;;;1.28;74.27
66703;BME280;60933;46.398;-63.798;2023-02-17T01:16:47;101186.28;;;1.32;74.50
66703;BME280;60933;46.398;-63.798;2023-02-17T01:19:16;101177.78;;;1.31;74.66
66703;BME280;60933;46.398;-63.798;2023-02-17T01:21:43;101187.97;;;1.31;73.90
66703;BME280;60933;46.398;-63.798;2023-02-17T01:24:11;101206.72;;;1.36;73.36
66703;BME280;60933;46.398;-63.798;2023-02-17T01:26:38;101216.94;;;1.39;73.37
66703;BME280;60933;46.398;-63.798;2023-02-17T01:29:07;101220.47;;;1.45;73.20
66703;BME280;60933;46.398;-63.798;2023-02-17T01:31:34;101222.16;;;1.46;73.12
66703;BME280;60933;46.398;-63.798;2023-02-17T01:34:02;101229.03;;;1.50;73.25
66703;BME280;60933;46.398;-63.798;2023-02-17T01:36:28;101224.91;;;1.55;73.36
66703;BME280;60933;46.398;-63.798;2023-02-17T01:38:54;101247.88;;;1.58;73.34
66703;BME280;60933;46.398;-63.798;2023-02-17T01:41:23;101258.97;;;1.62;73.22
66703;BME280;60933;46.398;-63.798;2023-02-17T01:46:43;101275.25;;;1.68;72.75
66703;BME280;60933;46.398;-63.798;2023-02-17T01:49:36;101284.56;;;1.69;73.12
66703;BME280;60933;46.398;-63.798;2023-02-17T01:52:10;101282.03;;;1.69;73.04
66703;BME280;60933;46.398;-63.798;2023-02-17T01:54:47;101288.84;;;1.70;72.82
66703;BME280;60933;46.398;-63.798;2023-02-17T01:57:17;101294.84;;;1.74;72.90
66703;BME280;60933;46.398;-63.798;2023-02-17T01:59:44;101301.66;;;1.75;72.71
66703;BME280;60933;46.398;-63.798;2023-02-17T02:02:11;101312.75;;;1.77;72.83
66703;BME280;60933;46.398;-63.798;2023-02-17T02:04:39;101306.84;;;1.80;72.31
66703;BME280;60933;46.398;-63.798;2023-02-17T02:07:33;101296.69;;;1.81;72.23
66703;BME280;60933;46.398;-63.798;2023-02-17T02:09:58;101283.94;;;1.80;71.34
66703;BME280;60933;46.398;-63.798;2023-02-17T02:12:32;101288.31;;;1.85;71.43
66703;BME280;60933;46.398;-63.798;2023-02-17T02:15:11;101271.31;;;1.84;71.38
66703;BME280;60933;46.398;-63.798;2023-02-17T02:18:07;101273.88;;;1.86;71.27
66703;BME280;60933;46.398;-63.798;2023-02-17T02:26:52;101295.00;;;1.82;66.32
66703;BME280;60933;46.398;-63.798;2023-02-17T02:32:47;101278.91;;;1.83;62.24
66703;BME280;60933;46.398;-63.798;2023-02-17T02:35:24;101251.66;;;1.77;62.31
66703;BME280;60933;46.398;-63.798;2023-02-17T02:38:00;101260.13;;;1.78;61.26
66703;BME280;60933;46.398;-63.798;2023-02-17T02:40:32;101234.66;;;1.78;59.59
66703;BME280;60933;46.398;-63.798;2023-02-17T02:43:00;101243.13;;;1.77;58.71
66703;BME280;60933;46.398;-63.798;2023-02-17T02:45:27;101243.09;;;1.73;58.47
66703;BME280;60933;46.398;-63.798;2023-02-17T02:47:55;101225.19;;;1.69;58.63
66703;BME280;60933;46.398;-63.798;2023-02-17T03:01:32;101253.38;;;1.37;57.63
66703;BME280;60933;46.398;-63.798;2023-02-17T03:04:25;101249.00;;;1.31;57.82
66703;BME280;60933;46.398;-63.798;2023-02-17T03:07:04;101255.69;;;1.26;56.83
66703;BME280;60933;46.398;-63.798;2023-02-17T03:09:34;101272.53;;;1.21;56.08
66703;BME280;60933;46.398;-63.798;2023-02-17T03:12:00;101292.00;;;1.20;54.29
66703;BME280;60933;46.398;-63.798;2023-02-17T03:14:27;101273.34;;;1.18;54.99
66703;BME280;60933;46.398;-63.798;2023-02-17T03:16:54;101269.88;;;1.15;54.21
66703;BME280;60933;46.398;-63.798;2023-02-17T03:19:22;101266.44;;;1.14;53.37
66703;BME280;60933;46.398;-63.798;2023-02-17T03:21:52;101263.78;;;1.09;53.87
66703;BME280;60933;46.398;-63.798;2023-02-17T03:24:21;101267.94;;;1.06;53.56
66703;BME280;60933;46.398;-63.798;2023-02-17T03:26:47;101266.19;;;1.03;53.17
66703;BME280;60933;46.398;-63.798;2023-02-17T03:29:13;101252.59;;;1.01;53.64
66703;BME280;60933;46.398;-63.798;2023-02-17T03:31:40;101249.00;;;0.93;53.32
66703;BME280;60933;46.398;-63.798;2023-02-17T03:34:06;101254.03;;;0.90;54.08
66703;BME280;60933;46.398;-63.798;2023-02-17T03:36:32;101257.41;;;0.89;54.14
66703;BME280;60933;46.398;-63.798;2023-02-17T03:38:58;101256.44;;;0.84;54.70
66703;BME280;60933;46.398;-63.798;2023-02-17T03:41:25;101257.19;;;0.79;54.17
66703;BME280;60933;46.398;-63.798;2023-02-17T03:43:51;101261.34;;;0.77;53.97
66703;BME280;60933;46.398;-63.798;2023-02-17T03:46:17;101257.94;;;0.75;54.07
66703;BME280;60933;46.398;-63.798;2023-02-17T03:48:43;101246.75;;;0.69;53.12
66703;BME280;60933;46.398;-63.798;2023-02-17T03:51:11;101240.75;;;0.65;53.77
66703;BME280;60933;46.398;-63.798;2023-02-17T03:53:38;101250.91;;;0.65;54.27
66703;BME280;60933;46.398;-63.798;2023-02-17T03:56:05;101230.44;;;0.59;53.80
66703;BME280;60933;46.398;-63.798;2023-02-17T03:58:31;101245.59;;;0.56;54.17
66703;BME280;60933;46.398;-63.798;2023-02-17T04:00:57;101254.84;;;0.52;54.49
66703;BME280;60933;46.398;-63.798;2023-02-17T04:03:23;101267.50;;;0.51;55.11
66703;BME280;60933;46.398;-63.798;2023-02-17T04:05:49;101259.75;;;0.46;55.73
66703;BME280;60933;46.398;-63.798;2023-02-17T04:08:15;101266.44;;;0.42;54.48
66703;BME280;60933;46.398;-63.798;2023-02-17T04:10:41;101263.88;;;0.41;55.14
66703;BME280;60933;46.398;-63.798;2023-02-17T04:13:07;101256.16;;;0.38;56.08
66703;BME280;60933;46.398;-63.798;2023-02-17T04:15:33;101267.91;;;0.33;55.42
66703;BME280;60933;46.398;-63.798;2023-02-17T04:17:59;101268.69;;;0.30;55.96
66703;BME280;60933;46.398;-63.798;2023-02-17T04:20:24;101251.63;;;0.26;54.73
66703;BME280;60933;46.398;-63.798;2023-02-17T04:22:51;101246.44;;;0.21;53.34
66703;BME280;60933;46.398;-63.798;2023-02-17T04:25:17;101244.59;;;0.15;54.14
66703;BME280;60933;46.398;-63.798;2023-02-17T04:27:42;101238.56;;;0.12;53.01
66703;BME280;60933;46.398;-63.798;2023-02-17T04:30:09;101222.34;;;0.05;52.25
66703;BME280;60933;46.398;-63.798;2023-02-17T04:32:35;101221.31;;;-0.02;52.82
66703;BME280;60933;46.398;-63.798;2023-02-17T04:35:04;101215.28;;;-0.05;53.66
66703;BME280;60933;46.398;-63.798;2023-02-17T04:37:30;101212.59;;;-0.11;54.22
66703;BME280;60933;46.398;-63.798;2023-02-17T04:39:55;101202.28;;;-0.18;54.83
66703;BME280;60933;46.398;-63.798;2023-02-17T04:42:21;101197.06;;;-0.24;56.50
66703;BME280;60933;46.398;-63.798;2023-02-17T04:44:47;101207.91;;;-0.28;58.12
66703;BME280;60933;46.398;-63.798;2023-02-17T04:47:13;101212.81;;;-0.36;58.57
66703;BME280;60933;46.398;-63.798;2023-02-17T04:49:39;101215.22;;;-0.40;60.87
66703;BME280;60933;46.398;-63.798;2023-02-17T04:52:05;101203.25;;;-0.44;63.19
66703;BME280;60933;46.398;-63.798;2023-02-17T04:54:30;101204.00;;;-0.49;64.37
66703;BME280;60933;46.398;-63.798;2023-02-17T04:56:56;101204.69;;;-0.53;65.65
66703;BME280;60933;46.398;-63.798;2023-02-17T04:59:22;101218.94;;;-0.58;65.72
66703;BME280;60933;46.398;-63.798;2023-02-17T05:01:48;101227.28;;;-0.62;65.47
66703;BME280;60933;46.398;-63.798;2023-02-17T05:04:14;101217.84;;;-0.66;65.28
66703;BME280;60933;46.398;-63.798;2023-02-17T05:06:40;101228.00;;;-0.66;65.29
66703;BME280;60933;46.398;-63.798;2023-02-17T05:09:06;101226.25;;;-0.69;65.61
66703;BME280;60933;46.398;-63.798;2023-02-17T05:11:33;101227.00;;;-0.71;64.60
66703;BME280;60933;46.398;-63.798;2023-02-17T05:13:59;101219.31;;;-0.74;65.59
66703;BME280;60933;46.398;-63.798;2023-02-17T05:16:25;101225.19;;;-0.75;65.04
66703;BME280;60933;46.398;-63.798;2023-02-17T05:18:51;101221.78;;;-0.77;64.97
66703;BME280;60933;46.398;-63.798;2023-02-17T05:21:17;101214.97;;;-0.78;64.65
66703;BME280;60933;46.398;-63.798;2023-02-17T05:23:43;101215.75;;;-0.81;64.73
66703;BME280;60933;46.398;-63.798;2023-02-17T05:26:09;101208.88;;;-0.84;64.36
66703;BME280;60933;46.398;-63.798;2023-02-17T05:28:36;101221.50;;;-0.87;64.34
66703;BME280;60933;46.398;-63.798;2023-02-17T05:31:03;101219.66;;;-0.91;64.18
66703;BME280;60933;46.398;-63.798;2023-02-17T05:33:29;101222.94;;;-0.95;63.50
66703;BME280;60933;46.398;-63.798;2023-02-17T05:35:59;101224.59;;;-0.96;63.73
66703;BME280;60933;46.398;-63.798;2023-02-17T05:38:25;101204.19;;;-1.00;63.96
66703;BME280;60933;46.398;-63.798;2023-02-17T05:40:51;101209.19;;;-1.02;64.17
66703;BME280;60933;46.398;-63.798;2023-02-17T05:43:17;101219.31;;;-1.03;64.66
66703;BME280;60933;46.398;-63.798;2023-02-17T05:45:43;101216.66;;;-1.06;63.92
66703;BME280;60933;46.398;-63.798;2023-02-17T05:48:09;101229.34;;;-1.06;65.20
66703;BME280;60933;46.398;-63.798;2023-02-17T05:50:35;101234.47;;;-1.05;64.96
66703;BME280;60933;46.398;-63.798;2023-02-17T05:53:01;101246.25;;;-1.05;65.58
66703;BME280;60933;46.398;-63.798;2023-02-17T05:55:27;101245.38;;;-1.07;65.60
66703;BME280;60933;46.398;-63.798;2023-02-17T05:57:53;101264.81;;;-1.06;65.37
66703;BME280;60933;46.398;-63.798;2023-02-17T06:00:19;101260.63;;;-1.06;66.04
66703;BME280;60933;46.398;-63.798;2023-02-17T06:02:45;101254.66;;;-1.06;65.76
66703;BME280;60933;46.398;-63.798;2023-02-17T06:05:10;101258.09;;;-1.06;65.62
66703;BME280;60933;46.398;-63.798;2023-02-17T06:07:37;101272.41;;;-1.06;66.50
66703;BME280;60933;46.398;-63.798;2023-02-17T06:10:02;101254.75;;;-1.05;66.42
66703;BME280;60933;46.398;-63.798;2023-02-17T06:12:29;101258.13;;;-1.04;65.98
66703;BME280;60933;46.398;-63.798;2023-02-17T06:14:54;101254.66;;;-1.06;66.28
66703;BME280;60933;46.398;-63.798;2023-02-17T06:17:20;101243.69;;;-1.07;66.25
66703;BME280;60933;46.398;-63.798;2023-02-17T06:19:47;101241.03;;;-1.10;66.09
66703;BME280;60933;46.398;-63.798;2023-02-17T06:22:13;101234.22;;;-1.13;66.39
66703;BME280;60933;46.398;-63.798;2023-02-17T06:24:39;101229.06;;;-1.16;66.73
66703;BME280;60933;46.398;-63.798;2023-02-17T06:27:05;101232.34;;;-1.18;66.12
66703;BME280;60933;46.398;-63.798;2023-02-17T06:29:31;101219.50;;;-1.24;66.57
66703;BME280;60933;46.398;-63.798;2023-02-17T06:31:57;101213.66;;;-1.22;66.91
66703;BME280;60933;46.398;-63.798;2023-02-17T06:34:23;101217.03;;;-1.23;66.65
66703;BME280;60933;46.398;-63.798;2023-02-17T06:36:49;101225.44;;;-1.24;66.22
66703;BME280;60933;46.398;-63.798;2023-02-17T06:39:15;101238.88;;;-1.26;67.08
66703;BME280;60933;46.398;-63.798;2023-02-17T06:41:40;101237.06;;;-1.29;67.11
66703;BME280;60933;46.398;-63.798;2023-02-17T06:44:07;101220.03;;;-1.35;66.80
66703;BME280;60933;46.398;-63.798;2023-02-17T06:46:33;101199.63;;;-1.39;66.69
66703;BME280;60933;46.398;-63.798;2023-02-17T06:48:59;101178.34;;;-1.45;67.11
66703;BME280;60933;46.398;-63.798;2023-02-17T06:51:27;101178.25;;;-1.48;67.95
66703;BME280;60933;46.398;-63.798;2023-02-17T06:53:54;101175.63;;;-1.51;68.29
66703;BME280;60933;46.398;-63.798;2023-02-17T06:56:20;101162.72;;;-1.58;68.23
66703;BME280;60933;46.398;-63.798;2023-02-17T06:58:46;101165.13;;;-1.63;68.12
66703;BME280;60933;46.398;-63.798;2023-02-17T07:01:21;101173.56;;;-1.63;67.68
66703;BME280;60933;46.398;-63.798;2023-02-17T07:03:47;101162.47;;;-1.66;67.44
66703;BME280;60933;46.398;-63.798;2023-02-17T07:06:13;101163.28;;;-1.67;68.05
66703;BME280;60933;46.398;-63.798;2023-02-17T07:08:39;101156.41;;;-1.71;68.25
66703;BME280;60933;46.398;-63.798;2023-02-17T07:11:07;101164.09;;;-1.68;68.75
66703;BME280;60933;46.398;-63.798;2023-02-17T07:13:34;101147.09;;;-1.72;68.90
66703;BME280;60933;46.398;-63.798;2023-02-17T07:16:00;101136.75;;;-1.80;68.98
66703;BME280;60933;46.398;-63.798;2023-02-17T07:18:26;101158.03;;;-1.73;68.72
66703;BME280;60933;46.398;-63.798;2023-02-17T07:20:52;101155.44;;;-1.75;68.46
66703;BME280;60933;46.398;-63.798;2023-02-17T07:23:18;101140.16;;;-1.78;68.07
66703;BME280;60933;46.398;-63.798;2023-02-17T07:25:44;101142.66;;;-1.80;68.32
66703;BME280;60933;46.398;-63.798;2023-02-17T07:28:10;101145.19;;;-1.80;68.33
66703;BME280;60933;46.398;-63.798;2023-02-17T07:30:36;101156.16;;;-1.79;68.21
66703;BME280;60933;46.398;-63.798;2023-02-17T07:33:03;101151.94;;;-1.80;68.41
66703;BME280;60933;46.398;-63.798;2023-02-17T07:35:28;101139.19;;;-1.82;68.29
66703;BME280;60933;46.398;-63.798;2023-02-17T07:37:57;101134.09;;;-1.83;68.38
66703;BME280;60933;46.398;-63.798;2023-02-17T07:40:24;101139.19;;;-1.82;69.21
66703;BME280;60933;46.398;-63.798;2023-02-17T07:42:50;101129.03;;;-1.83;69.06
66703;BME280;60933;46.398;-63.798;2023-02-17T07:45:16;101115.38;;;-1.88;67.57
66703;BME280;60933;46.398;-63.798;2023-02-17T07:47:43;101095.06;;;-1.90;67.70
66703;BME280;60933;46.398;-63.798;2023-02-17T07:50:08;101102.63;;;-1.92;68.14
66703;BME280;60933;46.398;-63.798;2023-02-17T07:52:35;101098.41;;;-1.91;68.12
66703;BME280;60933;46.398;-63.798;2023-02-17T07:55:00;101095.84;;;-1.93;68.83
66703;BME280;60933;46.398;-63.798;2023-02-17T07:57:26;101114.34;;;-1.94;68.66
66703;BME280;60933;46.398;-63.798;2023-02-17T07:59:53;101124.44;;;-1.95;68.28
66703;BME280;60933;46.398;-63.798;2023-02-17T08:02:19;101132.84;;;-1.96;69.07
66703;BME280;60933;46.398;-63.798;2023-02-17T08:04:44;101139.63;;;-1.95;68.57
66703;BME280;60933;46.398;-63.798;2023-02-17T08:07:10;101132.78;;;-1.98;69.23
66703;BME280;60933;46.398;-63.798;2023-02-17T08:09:36;101139.50;;;-1.98;69.47
66703;BME280;60933;46.398;-63.798;2023-02-17T08:12:21;101142.88;;;-1.99;69.29
66703;BME280;60933;46.398;-63.798;2023-02-17T08:15:08;101135.22;;;-2.01;69.86
66703;BME280;60933;46.398;-63.798;2023-02-17T08:17:34;101130.16;;;-2.01;70.17
66703;BME280;60933;46.398;-63.798;2023-02-17T08:20:00;101129.09;;;-2.08;70.32
66703;BME280;60933;46.398;-63.798;2023-02-17T08:22:26;101134.28;;;-2.03;69.59
66703;BME280;60933;46.398;-63.798;2023-02-17T08:24:52;101136.81;;;-2.03;68.94
66703;BME280;60933;46.398;-63.798;2023-02-17T08:27:18;101134.22;;;-2.06;68.78
66703;BME280;60933;46.398;-63.798;2023-02-17T08:29:44;101130.72;;;-2.10;68.13
66703;BME280;60933;46.398;-63.798;2023-02-17T08:32:12;101132.38;;;-2.10;68.08
66703;BME280;60933;46.398;-63.798;2023-02-17T08:34:39;101140.78;;;-2.11;68.61
66703;BME280;60933;46.398;-63.798;2023-02-17T08:37:05;101140.69;;;-2.14;68.55
66703;BME280;60933;46.398;-63.798;2023-02-17T08:39:33;101147.47;;;-2.13;68.68
66703;BME280;60933;46.398;-63.798;2023-02-17T08:42:00;101152.53;;;-2.13;69.39
66703;BME280;60933;46.398;-63.798;2023-02-17T08:44:26;101156.56;;;-2.18;68.47
66703;BME280;60933;46.398;-63.798;2023-02-17T08:46:52;101165.00;;;-2.18;68.26
66703;BME280;60933;46.398;-63.798;2023-02-17T08:49:21;101164.03;;;-2.21;68.19
66703;BME280;60933;46.398;-63.798;2023-02-17T08:51:48;101167.41;;;-2.21;68.30
66703;BME280;60933;46.398;-63.798;2023-02-17T08:54:14;101163.16;;;-2.22;68.97
66703;BME280;60933;46.398;-63.798;2023-02-17T08:56:41;101170.72;;;-2.24;68.65
66703;BME280;60933;46.398;-63.798;2023-02-17T08:59:09;101161.34;;;-2.26;68.64
66703;BME280;60933;46.398;-63.798;2023-02-17T09:01:37;101142.81;;;-2.27;69.51
66703;BME280;60933;46.398;-63.798;2023-02-17T09:04:05;101160.44;;;-2.28;69.29
66703;BME280;60933;46.398;-63.798;2023-02-17T09:06:37;101162.88;;;-2.31;68.66
66703;BME280;60933;46.398;-63.798;2023-02-17T09:09:06;101143.91;;;-2.43;68.93
66703;BME280;60933;46.398;-63.798;2023-02-17T09:11:32;101157.56;;;-2.38;69.14
66703;BME280;60933;46.398;-63.798;2023-02-17T09:13:58;101166.81;;;-2.40;69.79
66703;BME280;60933;46.398;-63.798;2023-02-17T09:16:24;101164.09;;;-2.44;69.80
66703;BME280;60933;46.398;-63.798;2023-02-17T09:18:51;101172.63;;;-2.42;69.50
66703;BME280;60933;46.398;-63.798;2023-02-17T09:21:18;101181.69;;;-2.47;70.00
66703;BME280;60933;46.398;-63.798;2023-02-17T09:23:45;101170.81;;;-2.45;70.34
66703;BME280;60933;46.398;-63.798;2023-02-17T09:26:13;101172.44;;;-2.47;70.18
66703;BME280;60933;46.398;-63.798;2023-02-17T09:28:40;101152.00;;;-2.53;70.43
66703;BME280;60933;46.398;-63.798;2023-02-17T09:31:14;101159.63;;;-2.51;70.71
66703;BME280;60933;46.398;-63.798;2023-02-17T09:33:41;101151.19;;;-2.52;70.60
66703;BME280;60933;46.398;-63.798;2023-02-17T09:36:10;101151.91;;;-2.56;70.65
66703;BME280;60933;46.398;-63.798;2023-02-17T09:38:38;101138.50;;;-2.53;70.53
66703;BME280;60933;46.398;-63.798;2023-02-17T09:41:22;101151.00;;;-2.57;70.68
66703;BME280;60933;46.398;-63.798;2023-02-17T09:43:49;101143.44;;;-2.57;70.47
66703;BME280;60933;46.398;-63.798;2023-02-17T09:46:17;101146.03;;;-2.55;70.15
66703;BME280;60933;46.398;-63.798;2023-02-17T09:48:47;101135.03;;;-2.56;70.63
66703;BME280;60933;46.398;-63.798;2023-02-17T09:54:21;101112.25;;;-2.57;70.83
66703;BME280;60933;46.398;-63.798;2023-02-17T09:56:49;101124.03;;;-2.58;70.21
66703;BME280;60933;46.398;-63.798;2023-02-17T09:59:36;101116.38;;;-2.59;70.02
66703;BME280;60933;46.398;-63.798;2023-02-17T10:02:27;101103.69;;;-2.61;69.42
66703;BME280;60933;46.398;-63.798;2023-02-17T10:04:55;101123.06;;;-2.61;68.81
66703;BME280;60933;46.398;-63.798;2023-02-17T10:07:34;101112.97;;;-2.61;69.29
66703;BME280;60933;46.398;-63.798;2023-02-17T10:10:20;101101.13;;;-2.62;69.21
66703;BME280;60933;46.398;-63.798;2023-02-17T10:12:57;101087.44;;;-2.67;69.45
66703;BME280;60933;46.398;-63.798;2023-02-17T10:15:47;101074.88;;;-2.66;70.42
66703;BME280;60933;46.398;-63.798;2023-02-17T10:18:29;101050.47;;;-2.65;70.41
66703;BME280;60933;46.398;-63.798;2023-02-17T10:21:00;101036.19;;;-2.65;70.35
66703;BME280;60933;46.398;-63.798;2023-02-17T10:23:29;101018.31;;;-2.69;70.20
66703;BME280;60933;46.398;-63.798;2023-02-17T10:26:11;100984.59;;;-2.70;69.48
66703;BME280;60933;46.398;-63.798;2023-02-17T10:28:52;100953.41;;;-2.71;70.11
66703;BME280;60933;46.398;-63.798;2023-02-17T10:39:29;100926.31;;;-2.75;69.82
66703;BME280;60933;46.398;-63.798;2023-02-17T10:41:59;100907.78;;;-2.75;69.94
66703;BME280;60933;46.398;-63.798;2023-02-17T10:44:26;100939.72;;;-2.77;69.10
66703;BME280;60933;46.398;-63.798;2023-02-17T10:46:52;100964.91;;;-2.80;69.81
66703;BME280;60933;46.398;-63.798;2023-02-17T10:49:40;100916.13;;;-2.78;69.22
66703;BME280;60933;46.398;-63.798;2023-02-17T10:54:44;100968.16;;;-2.83;69.10
66703;BME280;60933;46.398;-63.798;2023-02-17T10:57:12;100969.00;;;-2.84;67.98
66703;BME280;60933;46.398;-63.798;2023-02-17T10:59:43;101001.75;;;-2.86;67.74
66703;BME280;60933;46.398;-63.798;2023-02-17T11:02:35;101022.84;;;-2.85;67.44
66703;BME280;60933;46.398;-63.798;2023-02-17T11:05:04;101038.81;;;-2.86;66.49
66703;BME280;60933;46.398;-63.798;2023-02-17T11:07:38;101034.69;;;-2.84;66.98
66703;BME280;60933;46.398;-63.798;2023-02-17T11:10:26;101062.41;;;-2.86;66.56
66703;BME280;60933;46.398;-63.798;2023-02-17T11:12:52;101065.00;;;-2.84;66.47
66703;BME280;60933;46.398;-63.798;2023-02-17T11:15:26;101049.84;;;-2.84;65.63
66703;BME280;60933;46.398;-63.798;2023-02-17T11:17:54;101043.09;;;-2.83;64.72
66703;BME280;60933;46.398;-63.798;2023-02-17T11:23:00;101031.25;;;-2.86;64.80
66703;BME280;60933;46.398;-63.798;2023-02-17T11:25:33;101026.97;;;-2.87;64.08
66703;BME280;60933;46.398;-63.798;2023-02-17T11:28:11;101026.19;;;-2.86;64.95
66703;BME280;60933;46.398;-63.798;2023-02-17T11:30:39;101007.53;;;-2.90;63.82
66703;BME280;60933;46.398;-63.798;2023-02-17T11:33:13;101008.34;;;-2.91;63.83
66703;BME280;60933;46.398;-63.798;2023-02-17T11:39:00;100971.13;;;-2.95;64.58
66703;BME280;60933;46.398;-63.798;2023-02-17T11:41:07;100966.84;;;-2.97;64.78
66703;BME280;60933;46.398;-63.798;2023-02-17T11:43:34;100972.75;;;-2.97;65.76
66703;BME280;60933;46.398;-63.798;2023-02-17T11:49:03;100949.88;;;-3.02;66.16
66703;BME280;60933;46.398;-63.798;2023-02-17T11:59:48;100984.50;;;-2.97;66.91
66703;BME280;60933;46.398;-63.798;2023-02-17T12:07:43;100997.06;;;-3.00;68.02
66703;BME280;60933;46.398;-63.798;2023-02-17T12:23:56;100929.03;;;-3.20;69.00
66703;BME280;60933;46.398;-63.798;2023-02-17T12:26:45;100900.41;;;-3.21;69.22
66703;BME280;60933;46.398;-63.798;2023-02-17T12:34:43;100917.28;;;-3.20;71.40
66703;BME280;60933;46.398;-63.798;2023-02-17T12:37:20;100915.50;;;-3.22;71.70
66703;BME280;60933;46.398;-63.798;2023-02-17T12:39:55;100921.59;;;-3.15;71.99
66703;BME280;60933;46.398;-63.798;2023-02-17T12:42:26;100909.59;;;-3.23;71.92
66703;BME280;60933;46.398;-63.798;2023-02-17T12:44:59;100902.16;;;-3.18;72.01
66703;BME280;60933;46.398;-63.798;2023-02-17T12:47:52;100914.00;;;-3.17;71.90
66703;BME280;60933;46.398;-63.798;2023-02-17T12:53:02;100958.56;;;-3.18;72.37
66703;BME280;60933;46.398;-63.798;2023-02-17T12:56:06;100938.28;;;-3.21;70.89
66703;BME280;60933;46.398;-63.798;2023-02-17T12:58:30;100964.38;;;-3.20;69.38
66703;BME280;60933;46.398;-63.798;2023-02-17T13:01:10;100960.97;;;-3.22;68.57
66703;BME280;60933;46.398;-63.798;2023-02-17T13:03:39;100955.00;;;-3.24;69.30
66703;BME280;60933;46.398;-63.798;2023-02-17T13:06:24;100950.63;;;-3.28;70.13
66703;BME280;60933;46.398;-63.798;2023-02-17T13:12:10;100914.06;;;-3.14;71.03
66703;BME280;60933;46.398;-63.798;2023-02-17T13:14:43;100912.44;;;-3.13;70.98
66703;BME280;60933;46.398;-63.798;2023-02-17T13:20:24;100889.06;;;-3.08;70.62
66703;BME280;60933;46.398;-63.798;2023-02-17T13:23:03;100857.84;;;-3.10;71.46
66703;BME280;60933;46.398;-63.798;2023-02-17T13:25:31;100873.97;;;-3.05;71.52
66703;BME280;60933;46.398;-63.798;2023-02-17T13:28:00;100887.41;;;-3.06;71.36
66703;BME280;60933;46.398;-63.798;2023-02-17T13:30:36;100874.84;;;-3.04;72.05
66703;BME280;60933;46.398;-63.798;2023-02-17T13:35:47;100852.16;;;-3.03;72.64
66703;BME280;60933;46.398;-63.798;2023-02-17T13:38:25;100824.22;;;-3.07;72.21
66703;BME280;60933;46.398;-63.798;2023-02-17T13:40:51;100799.75;;;-3.10;72.63
66703;BME280;60933;46.398;-63.798;2023-02-17T13:43:17;100806.56;;;-3.07;72.95
66703;BME280;60933;46.398;-63.798;2023-02-17T13:46:00;100833.50;;;-3.08;73.09
66703;BME280;60933;46.398;-63.798;2023-02-17T13:48:32;100835.13;;;-3.08;72.97
66703;BME280;60933;46.398;-63.798;2023-02-17T13:51:06;100831.84;;;-3.06;73.60
66703;BME280;60933;46.398;-63.798;2023-02-17T13:53:39;100846.34;;;-3.00;73.25
66703;BME280;60933;46.398;-63.798;2023-02-17T13:56:10;100843.16;;;-2.94;73.60
66703;BME280;60933;46.398;-63.798;2023-02-17T13:58:39;100841.44;;;-2.95;73.59
66703;BME280;60933;46.398;-63.798;2023-02-17T14:01:11;100831.53;;;-2.89;74.01
66703;BME280;60933;46.398;-63.798;2023-02-17T14:06:05;100807.28;;;-2.84;73.78
66703;BME280;60933;46.398;-63.798;2023-02-17T14:08:42;100796.34;;;-2.83;73.37
66703;BME280;60933;46.398;-63.798;2023-02-17T14:26:43;100764.66;;;-2.44;72.11
66703;BME280;60933;46.398;-63.798;2023-02-17T14:29:12;100749.38;;;-2.47;72.51
66703;BME280;60933;46.398;-63.798;2023-02-17T14:31:41;100758.97;;;-2.37;72.13